sensor_id;sensor_type;location;lat;lon;timestamp;pressure;altitude;pressure_sealevel;temperature;humidity
21902;BME280;11115;46.038;14.612;2023-06-10T00:02:22;98063.53;;;14.76;100.00
21902;BME280;11115;46.038;14.612;2023-06-10T00:04:57;98065.06;;;14.86;100.00
21902;BME280;11115;46.038;14.612;2023-06-10T00:07:28;98034.66;;;14.69;100.00
21902;BME280;11115;46.038;14.612;2023-06-10T00:10:11;98052.31;;;14.85;100.00
21902;BME280;11115;46.038;14.612;2023-06-10T00:12:50;98049.50;;;14.97;100.00
21902;BME280;11115;46.038;14.612;2023-06-10T00:15:35;98049.75;;;15.04;100.00
21902;BME280;11115;46.038;14.612;2023-06-10T00:18:07;98045.09;;;14.72;100.00
21902;BME280;11115;46.038;14.612;2023-06-10T00:20:54;98053.22;;;14.89;100.00
21902;BME280;11115;46.038;14.612;2023-06-10T00:23:34;98048.44;;;15.02;100.00
21902;BME280;11115;46.038;14.612;2023-06-10T00:26:12;98054.03;;;14.90;100.00
21902;BME280;11115;46.038;14.612;2023-06-10T00:28:43;98049.59;;;15.01;100.00
21902;BME280;11115;46.038;14.612;2023-06-10T00:31:21;98018.19;;;14.88;100.00
21902;BME280;11115;46.038;14.612;2023-06-10T00:33:52;98048.34;;;15.10;100.00
21902;BME280;11115;46.038;14.612;2023-06-10T00:36:25;98048.91;;;15.04;100.00
21902;BME280;11115;46.038;14.612;2023-06-10T00:38:59;98058.31;;;15.11;100.00
21902;BME280;11115;46.038;14.612;2023-06-10T00:41:31;98057.75;;;14.94;100.00
21902;BME280;11115;46.038;14.612;2023-06-10T00:44:03;98046.38;;;14.99;100.00
21902;BME280;11115;46.038;14.612;2023-06-10T00:46:36;98052.75;;;14.87;100.00
21902;BME280;11115;46.038;14.612;2023-06-10T00:49:10;98055.63;;;14.78;100.00
21902;BME280;11115;46.038;14.612;2023-06-10T00:51:42;98051.94;;;14.74;100.00
21902;BME280;11115;46.038;14.612;2023-06-10T00:54:16;98054.56;;;14.58;100.00
21902;BME280;11115;46.038;14.612;2023-06-10T00:56:47;98052.59;;;14.59;100.00
21902;BME280;11115;46.038;14.612;2023-06-10T00:59:19;98053.25;;;14.44;100.00
21902;BME280;11115;46.038;14.612;2023-06-10T01:02:03;98055.16;;;14.64;100.00
21902;BME280;11115;46.038;14.612;2023-06-10T01:04:42;98034.16;;;14.54;100.00
21902;BME280;11115;46.038;14.612;2023-06-10T01:10:49;98051.59;;;14.43;100.00
21902;BME280;11115;46.038;14.612;2023-06-10T01:13:22;98047.84;;;14.47;100.00
21902;BME280;11115;46.038;14.612;2023-06-10T01:16:13;98053.41;;;14.60;100.00
21902;BME280;11115;46.038;14.612;2023-06-10T01:18:43;98054.34;;;14.51;100.00
21902;BME280;11115;46.038;14.612;2023-06-10T01:21:24;98046.22;;;14.46;100.00
21902;BME280;11115;46.038;14.612;2023-06-10T01:23:56;98051.91;;;14.50;100.00
21902;BME280;11115;46.038;14.612;2023-06-10T01:26:32;98058.88;;;14.56;100.00
21902;BME280;11115;46.038;14.612;2023-06-10T01:29:23;98053.88;;;14.49;100.00
21902;BME280;11115;46.038;14.612;2023-06-10T01:32:17;98051.91;;;14.50;100.00
21902;BME280;11115;46.038;14.612;2023-06-10T01:34:48;98051.94;;;14.29;100.00
21902;BME280;11115;46.038;14.612;2023-06-10T01:37:26;98049.28;;;14.33;100.00
21902;BME280;11115;46.038;14.612;2023-06-10T01:40:05;98065.69;;;14.13;100.00
21902;BME280;11115;46.038;14.612;2023-06-10T01:42:40;98000.03;;;13.46;100.00
21902;BME280;11115;46.038;14.612;2023-06-10T01:45:12;98059.06;;;13.85;100.00
21902;BME280;11115;46.038;14.612;2023-06-10T01:47:45;98050.84;;;14.09;100.00
21902;BME280;11115;46.038;14.612;2023-06-10T01:50:18;98048.06;;;14.09;100.00
21902;BME280;11115;46.038;14.612;2023-06-10T01:52:50;98042.34;;;14.06;100.00
21902;BME280;11115;46.038;14.612;2023-06-10T01:55:24;98046.22;;;14.13;100.00
21902;BME280;11115;46.038;14.612;2023-06-10T01:58:02;98042.44;;;14.30;100.00
21902;BME280;11115;46.038;14.612;2023-06-10T02:00:35;98047.09;;;14.38;100.00
21902;BME280;11115;46.038;14.612;2023-06-10T02:03:09;98050.47;;;14.44;100.00
21902;BME280;11115;46.038;14.612;2023-06-10T02:05:49;98043.38;;;14.34;100.00
21902;BME280;11115;46.038;14.612;2023-06-10T02:08:19;98047.72;;;14.11;100.00
21902;BME280;11115;46.038;14.612;2023-06-10T02:10:48;98048.53;;;14.11;100.00
21902;BME280;11115;46.038;14.612;2023-06-10T02:13:19;98058.16;;;14.14;100.00
21902;BME280;11115;46.038;14.612;2023-06-10T02:15:54;98047.50;;;14.16;100.00
21902;BME280;11115;46.038;14.612;2023-06-10T02:18:41;98035.44;;;14.12;100.00
21902;BME280;11115;46.038;14.612;2023-06-10T02:21:19;98053.81;;;14.04;100.00
21902;BME280;11115;46.038;14.612;2023-06-10T02:23:50;98062.41;;;13.78;100.00
21902;BME280;11115;46.038;14.612;2023-06-10T02:26:22;98053.34;;;13.69;100.00
21902;BME280;11115;46.038;14.612;2023-06-10T02:29:00;98055.63;;;13.67;100.00
21902;BME280;11115;46.038;14.612;2023-06-10T02:31:34;98062.31;;;13.87;100.00
21902;BME280;11115;46.038;14.612;2023-06-10T02:34:20;98048.97;;;13.80;100.00
21902;BME280;11115;46.038;14.612;2023-06-10T02:36:54;98060.84;;;13.89;100.00
21902;BME280;11115;46.038;14.612;2023-06-10T02:39:41;98049.84;;;13.93;100.00
21902;BME280;11115;46.038;14.612;2023-06-10T02:42:24;98053.78;;;13.92;100.00
21902;BME280;11115;46.038;14.612;2023-06-10T02:45:04;98052.66;;;14.05;100.00
21902;BME280;11115;46.038;14.612;2023-06-10T02:47:42;98050.81;;;13.76;100.00
21902;BME280;11115;46.038;14.612;2023-06-10T02:50:14;98053.13;;;13.74;100.00
21902;BME280;11115;46.038;14.612;2023-06-10T02:53:06;98049.00;;;13.59;100.00
21902;BME280;11115;46.038;14.612;2023-06-10T02:55:40;98046.69;;;13.61;100.00
21902;BME280;11115;46.038;14.612;2023-06-10T02:58:13;98048.50;;;13.78;100.00
21902;BME280;11115;46.038;14.612;2023-06-10T03:00:46;98035.50;;;13.70;100.00
21902;BME280;11115;46.038;14.612;2023-06-10T03:03:21;98039.91;;;13.71;100.00
21902;BME280;11115;46.038;14.612;2023-06-10T03:06:06;98048.50;;;13.78;100.00
21902;BME280;11115;46.038;14.612;2023-06-10T03:08:42;98048.25;;;13.71;100.00
21902;BME280;11115;46.038;14.612;2023-06-10T03:11:16;98040.06;;;13.54;100.00
21902;BME280;11115;46.038;14.612;2023-06-10T03:13:51;98046.94;;;13.68;100.00
21902;BME280;11115;46.038;14.612;2023-06-10T03:16:23;97996.47;;;13.46;100.00
21902;BME280;11115;46.038;14.612;2023-06-10T03:18:59;98037.88;;;13.59;100.00
21902;BME280;11115;46.038;14.612;2023-06-10T03:21:35;98049.13;;;13.63;100.00
21902;BME280;11115;46.038;14.612;2023-06-10T03:24:14;98060.84;;;13.68;100.00
21902;BME280;11115;46.038;14.612;2023-06-10T03:26:47;98059.41;;;13.62;100.00
21902;BME280;11115;46.038;14.612;2023-06-10T03:29:18;98062.66;;;13.64;100.00
21902;BME280;11115;46.038;14.612;2023-06-10T03:31:52;98062.06;;;13.59;100.00
21902;BME280;11115;46.038;14.612;2023-06-10T03:34:26;98065.25;;;13.49;100.00
21902;BME280;11115;46.038;14.612;2023-06-10T03:36:59;98067.66;;;13.29;100.00
21902;BME280;11115;46.038;14.612;2023-06-10T03:39:33;98077.78;;;13.34;100.00
21902;BME280;11115;46.038;14.612;2023-06-10T03:42:06;98077.81;;;13.55;100.00
21902;BME280;11115;46.038;14.612;2023-06-10T03:44:42;98065.09;;;13.45;100.00
21902;BME280;11115;46.038;14.612;2023-06-10T03:47:23;98057.19;;;13.35;100.00
21902;BME280;11115;46.038;14.612;2023-06-10T03:49:53;98082.47;;;13.63;100.00
21902;BME280;11115;46.038;14.612;2023-06-10T03:52:35;98073.88;;;13.56;100.00
21902;BME280;11115;46.038;14.612;2023-06-10T03:55:09;98082.47;;;13.63;100.00
21902;BME280;11115;46.038;14.612;2023-06-10T03:57:56;98078.28;;;13.78;100.00
21902;BME280;11115;46.038;14.612;2023-06-10T04:00:32;98068.19;;;13.73;100.00
21902;BME280;11115;46.038;14.612;2023-06-10T04:03:14;98085.13;;;13.80;100.00
21902;BME280;11115;46.038;14.612;2023-06-10T04:05:52;98088.69;;;14.02;100.00
21902;BME280;11115;46.038;14.612;2023-06-10T04:08:28;98081.25;;;13.93;100.00
21902;BME280;11115;46.038;14.612;2023-06-10T04:10:57;98084.41;;;14.04;100.00
21902;BME280;11115;46.038;14.612;2023-06-10T04:13:33;98082.78;;;14.03;100.00
21902;BME280;11115;46.038;14.612;2023-06-10T04:16:05;98084.69;;;14.11;100.00
21902;BME280;11115;46.038;14.612;2023-06-10T04:18:33;98061.66;;;13.90;100.00
21902;BME280;11115;46.038;14.612;2023-06-10T04:21:18;98089.09;;;14.12;100.00
21902;BME280;11115;46.038;14.612;2023-06-10T04:23:50;98097.69;;;14.19;100.00
21902;BME280;11115;46.038;14.612;2023-06-10T04:26:24;98093.44;;;14.34;100.00
21902;BME280;11115;46.038;14.612;2023-06-10T04:29:01;98094.59;;;14.54;100.00
21902;BME280;11115;46.038;14.612;2023-06-10T04:31:34;98095.91;;;14.36;100.00
21902;BME280;11115;46.038;14.612;2023-06-10T04:34:06;98088.78;;;14.26;100.00
21902;BME280;11115;46.038;14.612;2023-06-10T04:36:40;98088.53;;;14.19;100.00
21902;BME280;11115;46.038;14.612;2023-06-10T04:39:13;98093.09;;;14.36;100.00
21902;BME280;11115;46.038;14.612;2023-06-10T04:41:57;98083.44;;;14.21;100.00
21902;BME280;11115;46.038;14.612;2023-06-10T04:44:29;98090.53;;;14.51;100.00
21902;BME280;11115;46.038;14.612;2023-06-10T04:47:01;98097.47;;;14.57;100.00
21902;BME280;11115;46.038;14.612;2023-06-10T04:49:46;98074.63;;;14.64;100.00
21902;BME280;11115;46.038;14.612;2023-06-10T04:52:20;98068.88;;;14.81;100.00
21902;BME280;11115;46.038;14.612;2023-06-10T04:54:50;98076.31;;;14.90;100.00
21902;BME280;11115;46.038;14.612;2023-06-10T04:57:26;98090.69;;;14.92;100.00
21902;BME280;11115;46.038;14.612;2023-06-10T04:59:57;98087.09;;;14.91;100.00
21902;BME280;11115;46.038;14.612;2023-06-10T05:02:33;98095.47;;;14.91;100.00
21902;BME280;11115;46.038;14.612;2023-06-10T05:05:02;98086.75;;;14.93;100.00
21902;BME280;11115;46.038;14.612;2023-06-10T05:07:43;98085.00;;;14.76;100.00
21902;BME280;11115;46.038;14.612;2023-06-10T05:10:29;98068.63;;;14.74;100.00
21902;BME280;11115;46.038;14.612;2023-06-10T05:13:02;98084.88;;;14.84;100.00
21902;BME280;11115;46.038;14.612;2023-06-10T05:15:42;98091.41;;;14.88;100.00
21902;BME280;11115;46.038;14.612;2023-06-10T05:18:19;98087.78;;;14.76;100.00
21902;BME280;11115;46.038;14.612;2023-06-10T05:20:51;98081.97;;;14.69;100.00
21902;BME280;11115;46.038;14.612;2023-06-10T05:23:23;98083.41;;;14.87;100.00
21902;BME280;11115;46.038;14.612;2023-06-10T05:25:55;98088.72;;;14.80;100.00
21902;BME280;11115;46.038;14.612;2023-06-10T05:28:27;98093.84;;;14.90;100.00
21902;BME280;11115;46.038;14.612;2023-06-10T05:31:02;98088.75;;;15.04;100.00
21902;BME280;11115;46.038;14.612;2023-06-10T05:33:33;98079.91;;;15.02;100.00
21902;BME280;11115;46.038;14.612;2023-06-10T05:36:13;98082.47;;;15.07;100.00
21902;BME280;11115;46.038;14.612;2023-06-10T05:38:46;98087.69;;;15.33;100.00
21902;BME280;11115;46.038;14.612;2023-06-10T05:41:30;98085.69;;;15.46;100.00
21902;BME280;11115;46.038;14.612;2023-06-10T05:44:01;98083.47;;;15.39;100.00
21902;BME280;11115;46.038;14.612;2023-06-10T05:46:31;98091.72;;;15.48;100.00
21902;BME280;11115;46.038;14.612;2023-06-10T05:49:07;98087.31;;;15.35;100.00
21902;BME280;11115;46.038;14.612;2023-06-10T05:51:41;98089.19;;;15.43;100.00
21902;BME280;11115;46.038;14.612;2023-06-10T05:54:15;98076.53;;;15.21;100.00
21902;BME280;11115;46.038;14.612;2023-06-10T05:56:49;98083.41;;;15.24;100.00
21902;BME280;11115;46.038;14.612;2023-06-10T05:59:26;98092.22;;;15.26;100.00
21902;BME280;11115;46.038;14.612;2023-06-10T06:02:07;98091.28;;;15.22;100.00
21902;BME280;11115;46.038;14.612;2023-06-10T06:04:41;98095.34;;;15.36;100.00
21902;BME280;11115;46.038;14.612;2023-06-10T06:07:21;98099.75;;;15.62;100.00
21902;BME280;11115;46.038;14.612;2023-06-10T06:10:02;98098.44;;;15.71;100.00
21902;BME280;11115;46.038;14.612;2023-06-10T06:12:36;98098.91;;;15.73;100.00
21902;BME280;11115;46.038;14.612;2023-06-10T06:15:14;98079.41;;;15.61;100.00
21902;BME280;11115;46.038;14.612;2023-06-10T06:17:47;98100.09;;;15.60;100.00
21902;BME280;11115;46.038;14.612;2023-06-10T06:20:23;98095.00;;;15.62;100.00
21902;BME280;11115;46.038;14.612;2023-06-10T06:22:59;98092.97;;;15.75;100.00
21902;BME280;11115;46.038;14.612;2023-06-10T06:25:44;98085.88;;;15.77;100.00
21902;BME280;11115;46.038;14.612;2023-06-10T06:28:16;98091.72;;;15.72;100.00
21902;BME280;11115;46.038;14.612;2023-06-10T06:30:48;98086.56;;;15.87;100.00
21902;BME280;11115;46.038;14.612;2023-06-10T06:33:19;98083.06;;;15.90;100.00
21902;BME280;11115;46.038;14.612;2023-06-10T06:35:55;98085.56;;;15.55;100.00
21902;BME280;11115;46.038;14.612;2023-06-10T06:38:38;98093.84;;;15.63;100.00
21902;BME280;11115;46.038;14.612;2023-06-10T06:41:17;98092.88;;;15.71;100.00
21902;BME280;11115;46.038;14.612;2023-06-10T06:43:55;98079.91;;;15.63;100.00
21902;BME280;11115;46.038;14.612;2023-06-10T06:46:44;98090.91;;;16.00;100.00
21902;BME280;11115;46.038;14.612;2023-06-10T06:49:19;98091.75;;;16.00;100.00
21902;BME280;11115;46.038;14.612;2023-06-10T06:51:54;98092.56;;;16.01;100.00
21902;BME280;11115;46.038;14.612;2023-06-10T06:54:25;98091.63;;;15.97;100.00
21902;BME280;11115;46.038;14.612;2023-06-10T06:57:03;98085.63;;;16.23;100.00
21902;BME280;11115;46.038;14.612;2023-06-10T06:59:38;98079.31;;;16.26;100.00
21902;BME280;11115;46.038;14.612;2023-06-10T07:02:24;98089.81;;;16.45;100.00
21902;BME280;11115;46.038;14.612;2023-06-10T07:04:56;98089.06;;;16.76;100.00
21902;BME280;11115;46.038;14.612;2023-06-10T07:07:35;98080.16;;;16.86;100.00
21902;BME280;11115;46.038;14.612;2023-06-10T07:10:11;98079.59;;;16.96;100.00
21902;BME280;11115;46.038;14.612;2023-06-10T07:12:45;98086.44;;;17.14;100.00
21902;BME280;11115;46.038;14.612;2023-06-10T07:15:25;98074.13;;;16.84;100.00
21902;BME280;11115;46.038;14.612;2023-06-10T07:17:56;98078.88;;;17.15;100.00
21902;BME280;11115;46.038;14.612;2023-06-10T07:20:29;98076.44;;;17.29;100.00
21902;BME280;11115;46.038;14.612;2023-06-10T07:23:00;98078.34;;;17.60;100.00
21902;BME280;11115;46.038;14.612;2023-06-10T07:25:34;98077.66;;;17.47;100.00
21902;BME280;11115;46.038;14.612;2023-06-10T07:28:08;98075.31;;;17.49;100.00
21902;BME280;11115;46.038;14.612;2023-06-10T07:30:48;98073.13;;;17.74;100.00
21902;BME280;11115;46.038;14.612;2023-06-10T07:33:20;98073.34;;;17.85;100.00
21902;BME280;11115;46.038;14.612;2023-06-10T07:35:52;98063.09;;;17.93;100.00
21902;BME280;11115;46.038;14.612;2023-06-10T07:38:26;98065.19;;;17.96;100.00
21902;BME280;11115;46.038;14.612;2023-06-10T07:41:08;98053.44;;;18.09;100.00
21902;BME280;11115;46.038;14.612;2023-06-10T07:43:55;98065.19;;;18.15;100.00
21902;BME280;11115;46.038;14.612;2023-06-10T07:46:24;98058.41;;;18.16;100.00
21902;BME280;11115;46.038;14.612;2023-06-10T07:48:58;98061.56;;;18.34;100.00
21902;BME280;11115;46.038;14.612;2023-06-10T07:51:30;98057.53;;;18.96;100.00
21902;BME280;11115;46.038;14.612;2023-06-10T07:53:59;98056.34;;;18.97;100.00
21902;BME280;11115;46.038;14.612;2023-06-10T07:56:35;98048.53;;;18.87;100.00
21902;BME280;11115;46.038;14.612;2023-06-10T07:59:14;98038.13;;;18.88;100.00
21902;BME280;11115;46.038;14.612;2023-06-10T08:01:44;98045.59;;;19.03;100.00
21902;BME280;11115;46.038;14.612;2023-06-10T08:04:18;98038.13;;;19.10;100.00
21902;BME280;11115;46.038;14.612;2023-06-10T08:06:48;98044.66;;;19.18;100.00
21902;BME280;11115;46.038;14.612;2023-06-10T08:09:22;98041.03;;;19.44;100.00
21902;BME280;11115;46.038;14.612;2023-06-10T08:11:59;98041.88;;;19.71;100.00
21902;BME280;11115;46.038;14.612;2023-06-10T08:14:39;98047.84;;;19.99;100.00
21902;BME280;11115;46.038;14.612;2023-06-10T08:17:12;98048.00;;;19.80;100.00
21902;BME280;11115;46.038;14.612;2023-06-10T08:19:42;98049.22;;;19.83;100.00
21902;BME280;11115;46.038;14.612;2023-06-10T08:22:26;98048.91;;;19.88;100.00
21902;BME280;11115;46.038;14.612;2023-06-10T08:25:00;98052.19;;;19.93;100.00
21902;BME280;11115;46.038;14.612;2023-06-10T08:27:39;98058.88;;;20.15;100.00
21902;BME280;11115;46.038;14.612;2023-06-10T08:30:12;98058.00;;;20.08;100.00
21902;BME280;11115;46.038;14.612;2023-06-10T08:32:52;98049.47;;;20.00;100.00
21902;BME280;11115;46.038;14.612;2023-06-10T08:35:23;98034.84;;;20.18;100.00
21902;BME280;11115;46.038;14.612;2023-06-10T08:37:58;98031.84;;;20.04;100.00
21902;BME280;11115;46.038;14.612;2023-06-10T08:40:35;98039.19;;;20.12;100.00
21902;BME280;11115;46.038;14.612;2023-06-10T08:43:51;98047.13;;;20.40;100.00
21902;BME280;11115;46.038;14.612;2023-06-10T08:46:09;98038.22;;;20.34;100.00
21902;BME280;11115;46.038;14.612;2023-06-10T08:48:43;98041.41;;;20.66;100.00
21902;BME280;11115;46.038;14.612;2023-06-10T08:51:32;98036.00;;;20.87;100.00
21902;BME280;11115;46.038;14.612;2023-06-10T08:54:11;98024.03;;;20.98;100.00
21902;BME280;11115;46.038;14.612;2023-06-10T08:56:49;98028.84;;;21.01;100.00
21902;BME280;11115;46.038;14.612;2023-06-10T08:59:23;98031.78;;;21.11;100.00
21902;BME280;11115;46.038;14.612;2023-06-10T09:01:58;98030.19;;;21.17;100.00
21902;BME280;11115;46.038;14.612;2023-06-10T09:04:31;98036.75;;;21.29;100.00
21902;BME280;11115;46.038;14.612;2023-06-10T09:07:37;98038.63;;;21.14;100.00
21902;BME280;11115;46.038;14.612;2023-06-10T09:10:12;98033.75;;;21.07;100.00
21902;BME280;11115;46.038;14.612;2023-06-10T09:13:02;98040.25;;;21.18;100.00
21902;BME280;11115;46.038;14.612;2023-06-10T09:15:37;98028.66;;;21.24;100.00
21902;BME280;11115;46.038;14.612;2023-06-10T09:18:12;98042.38;;;21.25;100.00
21902;BME280;11115;46.038;14.612;2023-06-10T09:20:45;98017.31;;;21.13;100.00
21902;BME280;11115;46.038;14.612;2023-06-10T09:23:24;98036.81;;;21.36;100.00
21902;BME280;11115;46.038;14.612;2023-06-10T09:26:01;98030.88;;;21.48;100.00
21902;BME280;11115;46.038;14.612;2023-06-10T09:28:37;98017.69;;;21.63;100.00
21902;BME280;11115;46.038;14.612;2023-06-10T09:31:12;98014.59;;;21.89;100.00
21902;BME280;11115;46.038;14.612;2023-06-10T09:33:54;98018.75;;;22.13;100.00
21902;BME280;11115;46.038;14.612;2023-06-10T09:36:29;98022.50;;;22.56;100.00
21902;BME280;11115;46.038;14.612;2023-06-10T09:39:01;98008.78;;;22.37;100.00
21902;BME280;11115;46.038;14.612;2023-06-10T09:41:51;97978.19;;;22.42;100.00
21902;BME280;11115;46.038;14.612;2023-06-10T09:44:29;97999.88;;;22.35;100.00
21902;BME280;11115;46.038;14.612;2023-06-10T09:47:06;97989.47;;;22.42;100.00
21902;BME280;11115;46.038;14.612;2023-06-10T09:49:39;97987.06;;;22.59;100.00
21902;BME280;11115;46.038;14.612;2023-06-10T09:52:08;97992.72;;;22.73;100.00
21902;BME280;11115;46.038;14.612;2023-06-10T09:54:53;97993.97;;;23.08;100.00
21902;BME280;11115;46.038;14.612;2023-06-10T09:57:53;97985.47;;;23.40;100.00
21902;BME280;11115;46.038;14.612;2023-06-10T10:00:32;97966.16;;;23.06;100.00
21902;BME280;11115;46.038;14.612;2023-06-10T10:03:03;97989.53;;;22.89;100.00
21902;BME280;11115;46.038;14.612;2023-06-10T10:05:36;97993.94;;;23.36;100.00
21902;BME280;11115;46.038;14.612;2023-06-10T10:08:22;97994.09;;;24.16;100.00
21902;BME280;11115;46.038;14.612;2023-06-10T10:10:56;97982.63;;;23.32;100.00
21902;BME280;11115;46.038;14.612;2023-06-10T10:13:28;97976.63;;;23.20;100.00
21902;BME280;11115;46.038;14.612;2023-06-10T10:16:15;97983.06;;;23.20;100.00
21902;BME280;11115;46.038;14.612;2023-06-10T10:19:11;97964.84;;;23.50;100.00
21902;BME280;11115;46.038;14.612;2023-06-10T10:21:53;97944.28;;;23.67;100.00
21902;BME280;11115;46.038;14.612;2023-06-10T10:24:31;97962.19;;;24.19;100.00
21902;BME280;11115;46.038;14.612;2023-06-10T10:27:11;97950.13;;;24.15;100.00
21902;BME280;11115;46.038;14.612;2023-06-10T10:29:48;97952.47;;;24.31;100.00
21902;BME280;11115;46.038;14.612;2023-06-10T10:32:46;97944.34;;;24.37;100.00
21902;BME280;11115;46.038;14.612;2023-06-10T10:35:21;97948.41;;;24.36;100.00
21902;BME280;11115;46.038;14.612;2023-06-10T10:37:55;97954.09;;;24.29;100.00
21902;BME280;11115;46.038;14.612;2023-06-10T10:40:28;97956.72;;;23.84;100.00
21902;BME280;11115;46.038;14.612;2023-06-10T10:43:04;97959.50;;;23.87;100.00
21902;BME280;11115;46.038;14.612;2023-06-10T10:45:37;97951.84;;;23.95;100.00
21902;BME280;11115;46.038;14.612;2023-06-10T10:48:12;97942.03;;;24.17;100.00
21902;BME280;11115;46.038;14.612;2023-06-10T10:50:57;97954.47;;;24.27;100.00
21902;BME280;11115;46.038;14.612;2023-06-10T10:53:29;97963.81;;;24.17;100.00
21902;BME280;11115;46.038;14.612;2023-06-10T10:56:16;97964.31;;;24.01;100.00
21902;BME280;11115;46.038;14.612;2023-06-10T10:59:06;97953.44;;;23.96;100.00
21902;BME280;11115;46.038;14.612;2023-06-10T11:01:43;97957.88;;;23.90;100.00
21902;BME280;11115;46.038;14.612;2023-06-10T11:04:19;97950.25;;;23.87;100.00
21902;BME280;11115;46.038;14.612;2023-06-10T11:07:06;97962.75;;;23.93;100.00
21902;BME280;11115;46.038;14.612;2023-06-10T11:10:20;97957.41;;;24.06;100.00
21902;BME280;11115;46.038;14.612;2023-06-10T11:12:54;97952.19;;;24.04;100.00
21902;BME280;11115;46.038;14.612;2023-06-10T11:15:31;97933.59;;;24.07;100.00
21902;BME280;11115;46.038;14.612;2023-06-10T11:20:52;97926.56;;;24.92;100.00
21902;BME280;11115;46.038;14.612;2023-06-10T11:23:38;97920.69;;;25.17;100.00
21902;BME280;11115;46.038;14.612;2023-06-10T11:29:07;97921.88;;;25.19;100.00
21902;BME280;11115;46.038;14.612;2023-06-10T11:31:45;97904.06;;;24.77;100.00
21902;BME280;11115;46.038;14.612;2023-06-10T11:34:23;97907.75;;;24.71;100.00
21902;BME280;11115;46.038;14.612;2023-06-10T11:37:02;97906.88;;;24.77;100.00
21902;BME280;11115;46.038;14.612;2023-06-10T11:39:33;97905.38;;;24.62;100.00
21902;BME280;11115;46.038;14.612;2023-06-10T11:42:19;97905.84;;;24.57;100.00
21902;BME280;11115;46.038;14.612;2023-06-10T11:44:49;97894.19;;;24.48;100.00
21902;BME280;11115;46.038;14.612;2023-06-10T11:47:19;97895.84;;;24.42;100.00
21902;BME280;11115;46.038;14.612;2023-06-10T11:49:58;97899.97;;;24.34;100.00
21902;BME280;11115;46.038;14.612;2023-06-10T11:52:31;97905.22;;;24.25;100.00
21902;BME280;11115;46.038;14.612;2023-06-10T11:55:08;97913.09;;;23.96;100.00
21902;BME280;11115;46.038;14.612;2023-06-10T11:57:53;97910.38;;;23.74;100.00
21902;BME280;11115;46.038;14.612;2023-06-10T12:00:28;97912.84;;;23.51;100.00
21902;BME280;11115;46.038;14.612;2023-06-10T12:03:09;97904.09;;;23.17;100.00
21902;BME280;11115;46.038;14.612;2023-06-10T12:06:05;97912.91;;;23.26;100.00
21902;BME280;11115;46.038;14.612;2023-06-10T12:08:43;97912.50;;;23.31;100.00
21902;BME280;11115;46.038;14.612;2023-06-10T12:11:17;97902.81;;;23.39;100.00
21902;BME280;11115;46.038;14.612;2023-06-10T12:14:06;97910.91;;;23.34;100.00
21902;BME280;11115;46.038;14.612;2023-06-10T12:16:51;97894.00;;;23.12;100.00
21902;BME280;11115;46.038;14.612;2023-06-10T12:19:22;97900.84;;;23.18;100.00
21902;BME280;11115;46.038;14.612;2023-06-10T12:22:00;97905.34;;;22.87;100.00
21902;BME280;11115;46.038;14.612;2023-06-10T12:24:33;97906.09;;;23.09;100.00
21902;BME280;11115;46.038;14.612;2023-06-10T12:27:18;97911.72;;;23.13;100.00
21902;BME280;11115;46.038;14.612;2023-06-10T12:29:52;97889.59;;;23.15;100.00
21902;BME280;11115;46.038;14.612;2023-06-10T12:32:43;97915.78;;;23.15;100.00
21902;BME280;11115;46.038;14.612;2023-06-10T12:35:27;97911.75;;;23.16;100.00
21902;BME280;11115;46.038;14.612;2023-06-10T12:38:04;97925.03;;;23.23;100.00
21902;BME280;11115;46.038;14.612;2023-06-10T12:40:50;97930.28;;;23.07;100.00
21902;BME280;11115;46.038;14.612;2023-06-10T12:43:27;97939.97;;;22.98;100.00
21902;BME280;11115;46.038;14.612;2023-06-10T12:46:11;97935.94;;;22.92;100.00
21902;BME280;11115;46.038;14.612;2023-06-10T12:48:50;97928.25;;;22.50;100.00
21902;BME280;11115;46.038;14.612;2023-06-10T12:51:27;97919.81;;;22.47;100.00
21902;BME280;11115;46.038;14.612;2023-06-10T12:53:59;97915.38;;;22.42;100.00
21902;BME280;11115;46.038;14.612;2023-06-10T12:56:38;97915.78;;;22.40;100.00
21902;BME280;11115;46.038;14.612;2023-06-10T12:59:10;97919.41;;;22.37;100.00
21902;BME280;11115;46.038;14.612;2023-06-10T13:01:38;97915.75;;;22.33;100.00
21902;BME280;11115;46.038;14.612;2023-06-10T13:04:17;97913.75;;;22.30;100.00
21902;BME280;11115;46.038;14.612;2023-06-10T13:06:49;97917.38;;;22.31;100.00
21902;BME280;11115;46.038;14.612;2023-06-10T13:09:21;97927.81;;;22.09;100.00
21902;BME280;11115;46.038;14.612;2023-06-10T13:12:19;97941.44;;;22.03;100.00
21902;BME280;11115;46.038;14.612;2023-06-10T13:15:13;97928.19;;;22.11;100.00
21902;BME280;11115;46.038;14.612;2023-06-10T13:17:48;97927.00;;;22.16;100.00
21902;BME280;11115;46.038;14.612;2023-06-10T13:20:20;97937.88;;;22.17;100.00
21902;BME280;11115;46.038;14.612;2023-06-10T13:23:08;97937.47;;;22.11;100.00
21902;BME280;11115;46.038;14.612;2023-06-10T13:25:40;97935.84;;;22.07;100.00
21902;BME280;11115;46.038;14.612;2023-06-10T13:28:13;97927.31;;;21.96;100.00
21902;BME280;11115;46.038;14.612;2023-06-10T13:30:44;97937.44;;;22.04;100.00
21902;BME280;11115;46.038;14.612;2023-06-10T13:33:18;97938.66;;;22.14;100.00
21902;BME280;11115;46.038;14.612;2023-06-10T13:35:49;97940.69;;;22.14;100.00
21902;BME280;11115;46.038;14.612;2023-06-10T13:38:22;97935.44;;;22.08;100.00
21902;BME280;11115;46.038;14.612;2023-06-10T13:40:55;97941.53;;;22.21;100.00